createdAt,value
2018-03-14T00:02:07.849Z,80.40
2018-03-14T00:04:35.641Z,80.85
2018-03-14T00:07:03.377Z,80.97
2018-03-14T00:09:31.151Z,81.23
2018-03-14T00:11:58.904Z,81.24
2018-03-14T00:14:26.673Z,81.13
2018-03-14T00:16:54.420Z,81.63
2018-03-14T00:19:22.213Z,81.56
2018-03-14T00:21:49.958Z,81.54
2018-03-14T00:24:17.705Z,80.99
2018-03-14T00:26:45.476Z,81.13
2018-03-14T00:29:13.259Z,81.15
2018-03-14T00:31:41.010Z,81.24
2018-03-14T00:34:08.766Z,81.05
2018-03-14T00:36:36.537Z,80.57
2018-03-14T00:39:04.285Z,80.82
2018-03-14T00:41:32.066Z,81.67
2018-03-14T00:43:59.812Z,81.54
2018-03-14T00:46:27.580Z,81.18
2018-03-14T00:48:55.329Z,81.54
2018-03-14T00:51:23.112Z,81.55
2018-03-14T00:53:50.907Z,80.83
2018-03-14T00:56:18.621Z,81.10
2018-03-14T00:58:46.393Z,81.32
2018-03-14T01:01:14.150Z,81.13
2018-03-14T01:03:41.917Z,81.69
2018-03-14T01:06:09.669Z,81.07
2018-03-14T01:08:37.465Z,81.65
2018-03-14T01:11:05.217Z,81.33
2018-03-14T01:13:32.998Z,81.58
2018-03-14T01:16:00.745Z,81.41
2018-03-14T01:18:28.525Z,80.86
2018-03-14T01:20:56.275Z,80.71
2018-03-14T01:23:24.060Z,81.12
2018-03-14T01:25:51.808Z,80.81
2018-03-14T01:28:19.561Z,81.21
2018-03-14T01:30:47.329Z,81.42
2018-03-14T01:33:15.077Z,81.71
2018-03-14T01:35:42.853Z,81.55
2018-03-14T01:38:10.611Z,81.33
2018-03-14T01:40:38.381Z,81.16
2018-03-14T01:43:06.133Z,81.24
2018-03-14T01:45:33.911Z,81.23
2018-03-14T01:48:01.676Z,80.98
2018-03-14T01:50:29.437Z,81.38
2018-03-14T01:53:03.105Z,81.62
2018-03-14T01:55:30.882Z,81.30
2018-03-14T01:57:58.629Z,81.46
2018-03-14T02:00:26.453Z,81.40
2018-03-14T02:02:54.210Z,81.41
2018-03-14T02:05:22.026Z,81.41
2018-03-14T02:07:49.781Z,81.57
2018-03-14T02:10:17.569Z,81.39
2018-03-14T02:12:45.318Z,81.58
2018-03-14T02:15:13.065Z,81.47
2018-03-14T02:17:40.832Z,81.34
2018-03-14T02:20:08.594Z,81.28
2018-03-14T02:22:36.370Z,81.55
2018-03-14T02:25:04.117Z,81.36
2018-03-14T02:27:31.889Z,81.09
2018-03-14T02:29:59.641Z,81.18
2018-03-14T02:32:27.409Z,81.61
2018-03-14T02:34:55.156Z,81.78
2018-03-14T02:37:22.924Z,82.10
2018-03-14T02:39:50.681Z,81.92
2018-03-14T02:42:18.449Z,81.87
2018-03-14T02:44:46.201Z,81.87
2018-03-14T02:47:14.793Z,82.43
2018-03-14T02:49:42.541Z,82.58
2018-03-14T02:52:10.329Z,82.12
2018-03-14T02:54:38.082Z,82.22
2018-03-14T02:57:05.828Z,82.23
2018-03-14T02:59:33.602Z,82.54
2018-03-14T03:02:01.365Z,82.69
2018-03-14T03:04:29.131Z,83.12
2018-03-14T03:06:56.877Z,83.03
2018-03-14T03:09:24.651Z,83.00
2018-03-14T03:11:52.405Z,83.09
2018-03-14T03:14:20.178Z,83.13
2018-03-14T03:16:47.930Z,82.66
2018-03-14T03:19:15.697Z,82.78
2018-03-14T03:21:43.449Z,83.01
2018-03-14T03:24:11.225Z,82.73
2018-03-14T03:26:38.973Z,82.93
2018-03-14T03:29:06.745Z,82.93
2018-03-14T03:31:34.499Z,82.91
2018-03-14T03:34:02.293Z,82.88
2018-03-14T03:36:30.041Z,82.55
2018-03-14T03:38:57.792Z,82.63
2018-03-14T03:41:25.557Z,82.75
2018-03-14T03:43:53.305Z,82.29
2018-03-14T03:46:21.078Z,82.09
2018-03-14T03:48:48.826Z,82.16
2018-03-14T03:51:16.607Z,82.10
2018-03-14T03:53:44.357Z,82.21
2018-03-14T03:56:12.125Z,82.73
2018-03-14T03:58:39.878Z,82.41
2018-03-14T04:01:07.649Z,82.46
2018-03-14T04:03:35.397Z,82.60
2018-03-14T04:06:03.168Z,82.66
2018-03-14T04:08:30.918Z,82.68
2018-03-14T04:10:58.678Z,82.50
2018-03-14T04:13:26.449Z,82.17
2018-03-14T04:15:54.201Z,82.71
2018-03-14T04:18:21.972Z,82.74
2018-03-14T04:20:49.721Z,82.65
2018-03-14T04:23:17.492Z,82.51
2018-03-14T04:25:45.246Z,82.16
2018-03-14T04:28:13.021Z,82.37
2018-03-14T04:30:40.769Z,82.23
2018-03-14T04:33:08.542Z,82.31
2018-03-14T04:35:36.295Z,82.33
2018-03-14T04:38:04.077Z,82.37
2018-03-14T04:40:31.872Z,82.08
2018-03-14T04:42:59.589Z,81.97
2018-03-14T04:45:27.347Z,82.37
2018-03-14T04:47:55.137Z,82.54
2018-03-14T04:50:22.893Z,82.50
2018-03-14T04:52:50.641Z,82.66
2018-03-14T04:55:18.423Z,82.24
2018-03-14T04:57:46.164Z,81.91
2018-03-14T05:00:13.928Z,82.10
2018-03-14T05:02:41.685Z,81.92
2018-03-14T05:05:09.462Z,82.23
2018-03-14T05:07:37.210Z,81.84
2018-03-14T05:10:04.981Z,82.00
2018-03-14T05:12:32.733Z,81.75
2018-03-14T05:15:00.525Z,81.38
2018-03-14T05:17:28.288Z,81.59
2018-03-14T05:19:56.025Z,81.83
2018-03-14T05:22:23.801Z,81.79
2018-03-14T05:24:51.557Z,81.90
2018-03-14T05:27:19.334Z,81.92
2018-03-14T05:29:47.081Z,82.03
2018-03-14T05:32:14.852Z,81.69
2018-03-14T05:34:42.602Z,81.63
2018-03-14T05:37:10.382Z,81.48
2018-03-14T05:39:38.133Z,81.89
2018-03-14T05:42:05.900Z,82.02
2018-03-14T05:44:33.648Z,82.07
2018-03-14T05:47:01.438Z,82.14
2018-03-14T05:49:29.189Z,82.00
2018-03-14T05:51:56.941Z,82.01
2018-03-14T05:54:24.719Z,81.84
2018-03-14T05:56:52.470Z,81.69
2018-03-14T05:59:20.242Z,81.98
2018-03-14T06:01:47.990Z,82.18
2018-03-14T06:04:15.761Z,82.08
2018-03-14T06:06:43.509Z,81.61
2018-03-14T06:09:11.278Z,81.69
2018-03-14T06:11:39.029Z,81.59
2018-03-14T06:14:06.802Z,81.99
2018-03-14T06:16:34.557Z,81.75
2018-03-14T06:19:02.324Z,81.64
2018-03-14T06:21:30.072Z,83.36
2018-03-14T06:23:57.847Z,81.83
2018-03-14T06:26:25.597Z,81.34
2018-03-14T06:28:53.389Z,80.34
2018-03-14T06:31:21.141Z,80.69
2018-03-14T06:33:48.893Z,81.13
2018-03-14T06:36:16.667Z,81.28
2018-03-14T06:38:44.416Z,80.43
2018-03-14T06:41:12.231Z,80.59
2018-03-14T06:43:39.981Z,80.91
2018-03-14T06:46:07.749Z,81.03
2018-03-14T06:48:35.509Z,80.63
2018-03-14T06:51:03.283Z,80.55
2018-03-14T06:53:31.025Z,80.48
2018-03-14T06:55:58.806Z,80.36
2018-03-14T06:58:32.321Z,79.94
2018-03-14T07:01:05.980Z,80.00
2018-03-14T07:03:39.753Z,80.00
2018-03-14T07:06:09.470Z,79.13
2018-03-14T07:08:37.218Z,80.04
2018-03-14T07:11:04.998Z,80.24
2018-03-14T07:13:32.745Z,79.78
2018-03-14T07:16:00.618Z,79.43
2018-03-14T07:18:28.372Z,79.76
2018-03-14T07:20:56.144Z,79.79
2018-03-14T07:23:23.907Z,79.44
2018-03-14T07:25:51.782Z,79.25
2018-03-14T07:28:19.558Z,79.25
2018-03-14T07:30:47.313Z,79.75
2018-03-14T07:33:15.569Z,79.68
2018-03-14T07:35:43.320Z,79.81
2018-03-14T07:38:11.094Z,79.85
2018-03-14T07:40:38.849Z,78.88
2018-03-14T07:43:06.629Z,79.06
2018-03-14T07:45:34.386Z,79.44
2018-03-14T07:48:02.251Z,79.18
2018-03-14T07:50:30.496Z,79.41
2018-03-14T07:52:58.277Z,78.88
2018-03-14T07:55:26.033Z,78.99
2018-03-14T07:57:53.825Z,79.44
2018-03-14T08:00:21.586Z,79.55
2018-03-14T08:02:49.437Z,79.15
2018-03-14T08:05:17.208Z,79.17
2018-03-14T08:07:45.473Z,79.52
2018-03-14T08:10:13.224Z,79.77
2018-03-14T08:12:40.978Z,79.33
2018-03-14T08:15:08.861Z,78.64
2018-03-14T08:17:36.612Z,78.85
2018-03-14T08:20:04.394Z,78.36
2018-03-14T08:22:32.141Z,78.20
2018-03-14T08:25:00.529Z,77.86
2018-03-14T08:27:28.284Z,77.21
2018-03-14T08:29:56.056Z,77.75
2018-03-14T08:32:23.813Z,78.02
2018-03-14T08:34:51.601Z,77.72
2018-03-14T08:37:19.450Z,77.17
2018-03-14T08:39:47.227Z,75.40
2018-03-14T08:42:15.590Z,76.95
2018-03-14T08:44:43.349Z,76.67
2018-03-14T08:47:11.217Z,76.17
2018-03-14T08:49:39.077Z,76.18
2018-03-14T08:52:06.859Z,76.67
2018-03-14T08:54:34.613Z,76.64
2018-03-14T08:57:02.393Z,76.27
2018-03-14T08:59:30.550Z,75.45
2018-03-14T09:01:58.409Z,75.58
2018-03-14T09:04:26.166Z,75.82
2018-03-14T09:06:53.937Z,76.30
2018-03-14T09:09:21.688Z,74.95
2018-03-14T09:11:49.490Z,74.55
2018-03-14T09:14:17.238Z,74.54
2018-03-14T09:16:45.487Z,74.45
2018-03-14T09:19:13.831Z,74.22
2018-03-14T09:21:42.157Z,72.93
2018-03-14T09:24:10.494Z,73.18
2018-03-14T09:26:38.818Z,72.82
2018-03-14T09:29:07.150Z,72.52
2018-03-14T09:31:35.470Z,72.78
2018-03-14T09:34:04.068Z,73.21
2018-03-14T09:36:32.391Z,71.40
2018-03-14T09:39:00.734Z,69.59
2018-03-14T09:41:29.061Z,70.13
2018-03-14T09:43:57.409Z,70.77
2018-03-14T09:46:25.730Z,70.16
2018-03-14T09:48:54.075Z,69.40
2018-03-14T09:51:22.413Z,69.83
2018-03-14T09:53:50.725Z,70.31
2018-03-14T09:56:19.052Z,70.57
2018-03-14T09:58:47.393Z,70.11
2018-03-14T10:01:15.719Z,68.26
2018-03-14T10:03:44.082Z,67.92
2018-03-14T10:06:12.401Z,67.71
2018-03-14T10:08:40.726Z,68.01
2018-03-14T10:11:09.074Z,66.55
2018-03-14T10:13:37.395Z,67.57
2018-03-14T10:16:06.710Z,67.79
2018-03-14T10:18:35.030Z,66.18
2018-03-14T10:21:03.375Z,65.76
2018-03-14T10:23:31.690Z,65.83
2018-03-14T10:26:00.044Z,66.23
2018-03-14T10:28:28.358Z,66.55
2018-03-14T10:30:56.702Z,67.48
2018-03-14T10:33:25.022Z,67.70
2018-03-14T10:35:53.362Z,66.89
2018-03-14T10:38:21.681Z,66.04
2018-03-14T10:40:50.054Z,66.27
2018-03-14T10:43:18.371Z,64.41
2018-03-14T10:45:46.690Z,61.36
2018-03-14T10:48:15.033Z,62.65
2018-03-14T10:50:43.348Z,62.59
2018-03-14T10:53:11.685Z,63.70
2018-03-14T10:55:40.005Z,63.51
2018-03-14T10:58:08.346Z,62.29
2018-03-14T11:00:42.239Z,62.48
2018-03-14T11:03:16.294Z,58.84
2018-03-14T11:05:44.619Z,60.45
2018-03-14T11:08:12.957Z,60.16
2018-03-14T11:10:41.269Z,60.30
2018-03-14T11:13:09.609Z,59.85
2018-03-14T11:15:37.930Z,60.13
2018-03-14T11:18:06.281Z,59.80
2018-03-14T11:20:34.586Z,60.29
2018-03-14T11:23:02.906Z,59.75
2018-03-14T11:25:31.308Z,60.39
2018-03-14T11:27:59.606Z,59.35
2018-03-14T11:30:27.934Z,59.37
2018-03-14T11:32:56.260Z,59.28
2018-03-14T11:35:24.602Z,58.90
2018-03-14T11:37:52.923Z,58.61
2018-03-14T11:40:21.259Z,58.29
2018-03-14T11:42:49.575Z,57.76
2018-03-14T11:45:17.915Z,58.11
2018-03-14T11:47:46.238Z,57.66
2018-03-14T11:50:14.578Z,57.78
2018-03-14T11:52:42.902Z,57.31
2018-03-14T11:55:11.238Z,58.01
2018-03-14T11:57:40.394Z,57.41
2018-03-14T12:00:08.729Z,57.78
2018-03-14T12:02:37.046Z,58.48
2018-03-14T12:05:05.382Z,58.01
2018-03-14T12:07:33.695Z,57.71
2018-03-14T12:10:02.067Z,57.72
2018-03-14T12:12:30.382Z,58.55
2018-03-14T12:14:58.719Z,58.35
2018-03-14T12:17:27.070Z,58.75
2018-03-14T12:19:55.418Z,58.14
2018-03-14T12:22:29.510Z,58.07
2018-03-14T12:24:57.879Z,57.69
2018-03-14T12:27:26.202Z,58.58
2018-03-14T12:29:54.564Z,58.39
2018-03-14T12:32:22.853Z,58.51
2018-03-14T12:34:51.182Z,58.02
2018-03-14T12:37:19.514Z,58.45
2018-03-14T12:39:47.832Z,57.71
2018-03-14T12:42:16.186Z,58.23
2018-03-14T12:44:44.497Z,58.16
2018-03-14T12:47:12.838Z,58.23
2018-03-14T12:49:41.151Z,56.96
2018-03-14T12:52:09.484Z,57.84
2018-03-14T12:54:37.802Z,58.15
2018-03-14T12:57:06.149Z,57.30
2018-03-14T12:59:34.474Z,58.05
2018-03-14T13:02:02.809Z,57.85
2018-03-14T13:04:31.122Z,57.80
2018-03-14T13:06:59.441Z,58.25
2018-03-14T13:09:27.782Z,59.07
2018-03-14T13:11:56.114Z,58.77
2018-03-14T13:14:24.462Z,57.01
2018-03-14T13:16:52.779Z,58.01
2018-03-14T13:19:21.746Z,57.89
2018-03-14T13:21:50.066Z,56.68
2018-03-14T13:24:18.406Z,57.03
2018-03-14T13:26:46.722Z,57.01
2018-03-14T13:29:15.063Z,56.95
2018-03-14T13:31:43.376Z,55.98
2018-03-14T13:34:11.713Z,55.27
2018-03-14T13:36:40.023Z,54.49
2018-03-14T13:39:09.330Z,54.86
2018-03-14T13:41:37.651Z,55.04
2018-03-14T13:44:05.988Z,55.28
2018-03-14T13:46:34.306Z,55.19
2018-03-14T13:49:02.640Z,56.32
2018-03-14T13:51:30.968Z,53.73
2018-03-14T13:53:59.295Z,53.59
2018-03-14T13:56:27.630Z,54.64
2018-03-14T13:58:56.076Z,53.50
2018-03-14T14:01:24.413Z,54.04
2018-03-14T14:03:52.738Z,53.32
2018-03-14T14:06:21.082Z,53.28
2018-03-14T14:08:49.402Z,53.37
2018-03-14T14:11:17.759Z,53.27
2018-03-14T14:13:46.074Z,53.60
2018-03-14T14:16:14.419Z,53.98
2018-03-14T14:18:42.739Z,53.59
2018-03-14T14:21:11.072Z,54.30
2018-03-14T14:23:39.389Z,53.89
2018-03-14T14:26:07.734Z,52.75
2018-03-14T14:28:36.053Z,53.21
2018-03-14T14:31:04.410Z,52.95
2018-03-14T14:33:32.729Z,52.94
2018-03-14T14:36:01.054Z,52.93
2018-03-14T14:38:29.397Z,53.69
2018-03-14T14:40:57.718Z,54.09
2018-03-14T14:43:26.061Z,53.64
2018-03-14T14:45:54.382Z,53.88
2018-03-14T14:48:22.725Z,53.14
2018-03-14T14:50:51.054Z,54.13
2018-03-14T14:53:19.398Z,54.47
2018-03-14T14:55:47.726Z,54.33
2018-03-14T14:58:16.074Z,54.01
2018-03-14T15:00:44.407Z,54.10
2018-03-14T15:03:12.756Z,54.11
2018-03-14T15:05:41.077Z,52.78
2018-03-14T15:08:10.126Z,53.80
2018-03-14T15:10:38.466Z,54.16
2018-03-14T15:13:06.828Z,54.04
2018-03-14T15:15:35.150Z,53.66
2018-03-14T15:18:03.522Z,54.68
2018-03-14T15:20:31.846Z,54.66
2018-03-14T15:23:00.173Z,53.84
2018-03-14T15:25:28.522Z,53.81
2018-03-14T15:27:56.929Z,53.56
2018-03-14T15:30:25.203Z,54.11
2018-03-14T15:32:53.534Z,54.05
2018-03-14T15:35:21.890Z,54.14
2018-03-14T15:37:50.214Z,54.13
2018-03-14T15:40:18.562Z,54.34
2018-03-14T15:42:46.882Z,54.88
2018-03-14T15:45:15.230Z,55.33
2018-03-14T15:47:43.562Z,54.84
2018-03-14T15:50:11.894Z,54.32
2018-03-14T15:52:40.225Z,55.03
2018-03-14T15:55:08.582Z,55.06
2018-03-14T15:57:36.907Z,58.21
2018-03-14T16:00:05.231Z,55.39
2018-03-14T16:02:33.579Z,55.64
2018-03-14T16:05:01.898Z,54.53
2018-03-14T16:07:30.246Z,54.21
2018-03-14T16:09:58.574Z,54.45
2018-03-14T16:12:26.922Z,54.64
2018-03-14T16:14:55.893Z,54.01
2018-03-14T16:17:24.243Z,55.00
2018-03-14T16:19:52.570Z,54.63
2018-03-14T16:22:20.919Z,54.43
2018-03-14T16:24:49.250Z,55.44
2018-03-14T16:27:17.592Z,55.11
2018-03-14T16:29:45.909Z,55.12
2018-03-14T16:32:14.438Z,55.63
2018-03-14T16:34:43.766Z,55.21
2018-03-14T16:37:12.272Z,55.52
2018-03-14T16:39:40.753Z,55.71
2018-03-14T16:42:09.175Z,56.31
2018-03-14T16:44:37.669Z,54.99
2018-03-14T16:47:06.087Z,54.99
2018-03-14T16:49:34.575Z,53.24
2018-03-14T16:52:03.016Z,54.27
2018-03-14T16:54:32.401Z,54.60
2018-03-14T16:57:01.075Z,54.97
2018-03-14T16:59:29.696Z,54.94
2018-03-14T17:01:58.221Z,53.76
2018-03-14T17:04:26.656Z,54.46
2018-03-14T17:06:55.160Z,54.89
2018-03-14T17:09:23.612Z,54.81
2018-03-14T17:11:52.088Z,55.45
2018-03-14T17:14:27.279Z,55.37
2018-03-14T17:16:52.789Z,55.31
2018-03-14T17:19:21.335Z,55.81
2018-03-14T17:21:49.948Z,55.99
2018-03-14T17:24:18.550Z,55.89
2018-03-14T17:26:47.030Z,56.10
2018-03-14T17:29:15.519Z,56.57
2018-03-14T17:31:43.924Z,57.09
2018-03-14T17:34:12.496Z,57.44
2018-03-14T17:36:40.884Z,57.50
2018-03-14T17:39:09.387Z,57.52
2018-03-14T17:41:37.868Z,57.42
2018-03-14T17:44:06.302Z,57.49
2018-03-14T17:46:34.728Z,57.21
2018-03-14T17:49:03.195Z,57.80
2018-03-14T17:51:31.747Z,57.65
2018-03-14T17:54:00.234Z,57.26
2018-03-14T17:56:28.756Z,57.58
2018-03-14T17:58:57.251Z,58.00
2018-03-14T18:01:25.771Z,57.70
2018-03-14T18:03:54.246Z,58.05
2018-03-14T18:06:22.672Z,58.08
2018-03-14T18:08:51.272Z,58.46
2018-03-14T18:11:19.957Z,58.10
2018-03-14T18:13:48.553Z,58.37
2018-03-14T18:16:18.027Z,58.57
2018-03-14T18:18:46.530Z,58.79
2018-03-14T18:21:14.930Z,58.81
2018-03-14T18:23:43.390Z,58.48
2018-03-14T18:26:12.744Z,57.63
2018-03-14T18:28:41.211Z,56.93
2018-03-14T18:31:09.639Z,57.69
2018-03-14T18:33:38.173Z,58.63
2018-03-14T18:36:06.598Z,58.87
2018-03-14T18:38:35.025Z,57.66
2018-03-14T18:41:03.594Z,58.12
2018-03-14T18:43:32.099Z,58.47
2018-03-14T18:46:00.511Z,58.24
2018-03-14T18:48:29.087Z,58.42
2018-03-14T18:50:57.495Z,58.66
2018-03-14T18:53:25.956Z,59.11
2018-03-14T18:55:54.611Z,59.16
2018-03-14T18:58:23.000Z,59.45
2018-03-14T19:00:51.568Z,59.42
2018-03-14T19:03:20.016Z,59.48
2018-03-14T19:05:48.531Z,59.62
2018-03-14T19:08:16.930Z,59.71
2018-03-14T19:10:45.552Z,59.35
2018-03-14T19:13:14.163Z,59.45
2018-03-14T19:15:42.781Z,59.34
2018-03-14T19:18:11.257Z,58.66
2018-03-14T19:20:40.012Z,58.71
2018-03-14T19:23:08.460Z,58.62
2018-03-14T19:25:36.939Z,59.00
2018-03-14T19:28:05.406Z,58.37
2018-03-14T19:30:33.842Z,58.60
2018-03-14T19:33:02.434Z,58.95
2018-03-14T19:35:30.998Z,59.00
2018-03-14T19:37:59.538Z,58.22
2018-03-14T19:40:28.030Z,58.41
2018-03-14T19:42:56.436Z,58.57
2018-03-14T19:45:24.922Z,58.91
2018-03-14T19:47:53.327Z,59.24
2018-03-14T19:50:21.746Z,59.59
2018-03-14T19:52:50.232Z,59.71
2018-03-14T19:55:18.853Z,59.94
2018-03-14T19:57:47.326Z,60.15
2018-03-14T20:00:16.730Z,60.49
2018-03-14T20:02:45.360Z,60.41
2018-03-14T20:05:13.893Z,60.40
2018-03-14T20:07:42.386Z,60.14
2018-03-14T20:10:10.936Z,60.09
2018-03-14T20:12:39.448Z,59.97
2018-03-14T20:15:07.853Z,60.25
2018-03-14T20:17:36.383Z,60.35
2018-03-14T20:20:04.703Z,60.47
2018-03-14T20:22:33.138Z,60.03
2018-03-14T20:25:02.414Z,60.39
2018-03-14T20:27:30.752Z,60.37
2018-03-14T20:29:59.162Z,60.42
2018-03-14T20:32:27.487Z,60.93
2018-03-14T20:34:55.839Z,60.61
2018-03-14T20:37:24.169Z,60.89
2018-03-14T20:39:52.521Z,61.39
2018-03-14T20:42:21.412Z,61.18
2018-03-14T20:44:49.845Z,61.64
2018-03-14T20:47:18.167Z,61.54
2018-03-14T20:49:46.521Z,61.56
2018-03-14T20:52:14.852Z,61.93
2018-03-14T20:54:43.213Z,62.07
2018-03-14T20:57:11.550Z,61.89
2018-03-14T20:59:39.883Z,62.06
2018-03-14T21:02:08.224Z,62.10
2018-03-14T21:04:36.553Z,62.19
2018-03-14T21:07:04.910Z,62.38
2018-03-14T21:09:33.265Z,62.45
2018-03-14T21:12:01.603Z,62.05
2018-03-14T21:14:29.962Z,62.38
2018-03-14T21:16:58.282Z,62.40
2018-03-14T21:19:26.609Z,62.55
2018-03-14T21:21:54.966Z,61.91
2018-03-14T21:24:23.295Z,62.04
2018-03-14T21:26:51.645Z,62.15
2018-03-14T21:29:19.980Z,62.15
2018-03-14T21:31:48.305Z,62.19
2018-03-14T21:34:16.658Z,62.15
2018-03-14T21:36:46.019Z,61.59
2018-03-14T21:39:14.476Z,61.77
2018-03-14T21:41:42.701Z,61.81
2018-03-14T21:44:11.046Z,61.52
2018-03-14T21:46:40.262Z,61.81
2018-03-14T21:49:08.610Z,61.68
2018-03-14T21:51:36.972Z,61.33
2018-03-14T21:54:05.302Z,61.28
2018-03-14T21:56:34.654Z,61.20
2018-03-14T21:59:03.010Z,61.53
2018-03-14T22:01:31.330Z,61.43
2018-03-14T22:03:59.654Z,60.89
2018-03-14T22:06:28.003Z,60.63
2018-03-14T22:08:56.328Z,60.78
2018-03-14T22:11:24.671Z,61.77
2018-03-14T22:13:52.994Z,61.54
2018-03-14T22:16:22.374Z,61.68
2018-03-14T22:18:50.707Z,61.42
2018-03-14T22:21:19.047Z,61.51
2018-03-14T22:23:47.370Z,61.74
2018-03-14T22:26:15.718Z,61.89
2018-03-14T22:28:44.042Z,61.60
2018-03-14T22:31:12.395Z,62.06
2018-03-14T22:33:40.697Z,61.87
2018-03-14T22:36:09.033Z,62.42
2018-03-14T22:38:37.362Z,62.30
2018-03-14T22:41:05.702Z,62.70
2018-03-14T22:43:34.022Z,62.33
2018-03-14T22:46:02.629Z,62.84
2018-03-14T22:48:30.954Z,61.68
2018-03-14T22:50:59.274Z,61.48
2018-03-14T22:53:27.613Z,62.43
2018-03-14T22:55:55.934Z,62.00
2018-03-14T22:58:24.279Z,62.07
2018-03-14T23:00:52.594Z,61.28
2018-03-14T23:03:20.938Z,61.65
2018-03-14T23:05:49.254Z,62.10
2018-03-14T23:08:17.599Z,62.42
2018-03-14T23:10:45.917Z,62.63
2018-03-14T23:13:14.259Z,62.66
2018-03-14T23:15:42.578Z,63.07
2018-03-14T23:18:10.921Z,62.66
2018-03-14T23:20:39.242Z,62.56
2018-03-14T23:23:07.594Z,62.15
2018-03-14T23:25:35.906Z,62.31
2018-03-14T23:28:04.234Z,61.70
2018-03-14T23:30:32.574Z,62.30
2018-03-14T23:33:00.893Z,62.69
2018-03-14T23:35:29.234Z,62.94
2018-03-14T23:37:57.547Z,62.61
2018-03-14T23:40:25.891Z,62.95
2018-03-14T23:42:54.210Z,62.22
2018-03-14T23:45:22.555Z,62.70
2018-03-14T23:47:50.874Z,62.87
2018-03-14T23:50:19.218Z,62.71
2018-03-14T23:52:47.526Z,62.85
2018-03-14T23:55:15.866Z,63.14
2018-03-14T23:57:44.184Z,62.65
